| Date Time MST |
Temp °F |
RH % |
DewPt °F |
Wind mph |
Dir ° |
Gust mph |
Dir ° |
Press in Hg |
Solar W/m^2 |
Prec in |
|---|---|---|---|---|---|---|---|---|---|---|
| 2026-05-03 15:15 | 72.5 | 12.8 | 18.5 | 8.7 | 329 | 11.4 | 325 | 24.725 | 251.2 | 0.00 |
| 2026-05-03 15:10 | 72.2 | 12.9 | 18.5 | 6.5 | 332 | 13.0 | 315 | 24.726 | 248.4 | 0.00 |
| 2026-05-03 15:05 | 72.2 | 12.7 | 18.0 | 8.7 | 319 | 14.8 | 342 | 24.729 | 244.4 | 0.00 |
| 2026-05-03 15:00 | 72.4 | 12.5 | 18.0 | 9.0 | 323 | 12.3 | 330 | 24.732 | 274.8 | 0.00 |
| 2026-05-03 14:55 | 71.9 | 13.1 | 18.6 | 9.5 | 353 | 13.4 | 310 | 24.735 | 302.5 | 0.00 |
| 2026-05-03 14:50 | 71.7 | 12.9 | 18.0 | 10.7 | 323 | 13.4 | 312 | 24.738 | 291.0 | 0.00 |
| 2026-05-03 14:45 | 71.3 | 13.5 | 18.9 | 12.8 | 332 | 17.1 | 7 | 24.739 | 258.5 | 0.00 |
| 2026-05-03 14:40 | 71.2 | 13.7 | 19.2 | 10.5 | 0 | 14.3 | 359 | 24.740 | 239.2 | 0.00 |
| 2026-05-03 14:35 | 71.5 | 13.5 | 19.0 | 11.3 | 358 | 15.7 | 353 | 24.743 | 264.3 | 0.00 |
| 2026-05-03 14:30 | 71.3 | 13.3 | 18.4 | 10.0 | 346 | 15.4 | 349 | 24.745 | 293.1 | 0.00 |
| 2026-05-03 14:25 | 71.4 | 12.8 | 17.6 | 10.9 | 0 | 17.8 | 9 | 24.749 | 279.9 | 0.00 |
| 2026-05-03 14:20 | 71.2 | 13.2 | 18.2 | 12.6 | 341 | 19.6 | 348 | 24.753 | 254.4 | 0.00 |
| 2026-05-03 14:15 | 71.3 | 12.4 | 16.8 | 7.6 | 354 | 13.2 | 345 | 24.752 | 280.7 | 0.00 |
| 2026-05-03 14:10 | 72.2 | 12.3 | 17.3 | 16.8 | 331 | 29.2 | 285 | 24.756 | 358.5 | 0.00 |
| 2026-05-03 14:05 | 71.8 | 13.0 | 18.3 | 7.2 | 344 | 13.3 | 338 | 24.758 | 297.0 | 0.00 |
| 2026-05-03 14:00 | 71.9 | 12.3 | 17.2 | 3.4 | 30 | 5.2 | 37 | 24.757 | 296.2 | 0.00 |
| 2026-05-03 13:55 | 72.0 | 12.0 | 16.7 | 3.1 | 19 | 5.6 | 36 | 24.760 | 329.9 | 0.00 |
| 2026-05-03 13:50 | 72.2 | 12.3 | 17.4 | 8.2 | 40 | 12.7 | 42 | 24.759 | 320.9 | 0.00 |
| 2026-05-03 13:45 | 72.8 | 12.0 | 17.3 | 5.4 | 39 | 10.8 | 46 | 24.760 | 361.7 | 0.00 |
| 2026-05-03 13:40 | 72.1 | 11.8 | 16.3 | 6.7 | 194 | 13.2 | 262 | 24.763 | 415.6 | 0.00 |
| 2026-05-03 13:35 | 72.8 | 11.5 | 16.2 | 10.9 | 252 | 19.2 | 244 | 24.768 | 422.0 | 0.00 |
| 2026-05-03 13:30 | 73.2 | 11.6 | 16.8 | 11.6 | 262 | 16.5 | 268 | 24.768 | 481.4 | 0.00 |
| 2026-05-03 13:25 | 72.4 | 12.1 | 17.0 | 11.0 | 251 | 14.9 | 239 | 24.768 | 462.3 | 0.00 |
| 2026-05-03 13:20 | 72.2 | 11.7 | 16.1 | 12.6 | 235 | 17.9 | 249 | 24.769 | 449.2 | 0.00 |
| 2026-05-03 13:15 | 72.0 | 11.6 | 15.8 | 9.8 | 229 | 15.3 | 277 | 24.772 | 418.5 | 0.00 |
| 2026-05-03 13:10 | 72.2 | 11.2 | 15.2 | 9.3 | 257 | 12.8 | 276 | 24.774 | 395.9 | 0.00 |
| 2026-05-03 13:05 | 72.1 | 11.8 | 16.4 | 9.6 | 266 | 15.5 | 234 | 24.776 | 426.2 | 0.00 |
| 2026-05-03 13:00 | 71.8 | 11.2 | 15.0 | 8.7 | 226 | 13.4 | 240 | 24.777 | 408.7 | 0.00 |
| 2026-05-03 12:55 | 71.7 | 11.4 | 15.2 | 13.6 | 272 | 21.4 | 260 | 24.777 | 440.2 | 0.00 |
| 2026-05-03 12:50 | 72.1 | 11.2 | 15.2 | 14.1 | 246 | 24.3 | 263 | 24.779 | 458.9 | 0.00 |
| Date Time MST |
Temp °C |
RH % |
DewPt °C |
Wind m/s |
Dir ° |
Gust m/s |
Dir ° |
Press hPa |
Solar W/m^2 |
Prec mm |
|---|---|---|---|---|---|---|---|---|---|---|
| 2026-05-03 15:15 | 22.5 | 12.8 | -7.5 | 3.9 | 329 | 5.1 | 325 | 837.28 | 251.2 | 0.00 |
| 2026-05-03 15:10 | 22.4 | 12.9 | -7.5 | 2.9 | 332 | 5.8 | 315 | 837.33 | 248.4 | 0.00 |
| 2026-05-03 15:05 | 22.3 | 12.7 | -7.8 | 3.9 | 319 | 6.6 | 342 | 837.43 | 244.4 | 0.00 |
| 2026-05-03 15:00 | 22.5 | 12.5 | -7.8 | 4.0 | 323 | 5.5 | 330 | 837.53 | 274.8 | 0.00 |
| 2026-05-03 14:55 | 22.1 | 13.1 | -7.4 | 4.2 | 353 | 6.0 | 310 | 837.61 | 302.5 | 0.00 |
| 2026-05-03 14:50 | 22.1 | 12.9 | -7.8 | 4.8 | 323 | 6.0 | 312 | 837.74 | 291.0 | 0.00 |
| 2026-05-03 14:45 | 21.8 | 13.5 | -7.3 | 5.7 | 332 | 7.7 | 7 | 837.77 | 258.5 | 0.00 |
| 2026-05-03 14:40 | 21.8 | 13.7 | -7.1 | 4.7 | 0 | 6.4 | 359 | 837.79 | 239.2 | 0.00 |
| 2026-05-03 14:35 | 22.0 | 13.5 | -7.2 | 5.1 | 358 | 7.0 | 353 | 837.88 | 264.3 | 0.00 |
| 2026-05-03 14:30 | 21.8 | 13.3 | -7.6 | 4.5 | 346 | 6.9 | 349 | 837.95 | 293.1 | 0.00 |
| 2026-05-03 14:25 | 21.9 | 12.8 | -8.0 | 4.9 | 0 | 8.0 | 9 | 838.08 | 279.9 | 0.00 |
| 2026-05-03 14:20 | 21.8 | 13.2 | -7.6 | 5.6 | 341 | 8.8 | 348 | 838.23 | 254.4 | 0.00 |
| 2026-05-03 14:15 | 21.8 | 12.4 | -8.4 | 3.4 | 354 | 5.9 | 345 | 838.21 | 280.7 | 0.00 |
| 2026-05-03 14:10 | 22.3 | 12.3 | -8.2 | 7.5 | 331 | 13.1 | 285 | 838.32 | 358.5 | 0.00 |
| 2026-05-03 14:05 | 22.1 | 13.0 | -7.6 | 3.2 | 344 | 6.0 | 338 | 838.39 | 297.0 | 0.00 |
| 2026-05-03 14:00 | 22.2 | 12.3 | -8.2 | 1.5 | 30 | 2.3 | 37 | 838.38 | 296.2 | 0.00 |
| 2026-05-03 13:55 | 22.2 | 12.0 | -8.5 | 1.4 | 19 | 2.5 | 36 | 838.46 | 329.9 | 0.00 |
| 2026-05-03 13:50 | 22.3 | 12.3 | -8.1 | 3.7 | 40 | 5.7 | 42 | 838.43 | 320.9 | 0.00 |
| 2026-05-03 13:45 | 22.7 | 12.0 | -8.2 | 2.4 | 39 | 4.8 | 46 | 838.45 | 361.7 | 0.00 |
| 2026-05-03 13:40 | 22.3 | 11.8 | -8.7 | 3.0 | 194 | 5.9 | 262 | 838.58 | 415.6 | 0.00 |
| 2026-05-03 13:35 | 22.7 | 11.5 | -8.8 | 4.9 | 252 | 8.6 | 244 | 838.75 | 422.0 | 0.00 |
| 2026-05-03 13:30 | 22.9 | 11.6 | -8.4 | 5.2 | 262 | 7.4 | 268 | 838.74 | 481.4 | 0.00 |
| 2026-05-03 13:25 | 22.4 | 12.1 | -8.3 | 4.9 | 251 | 6.7 | 239 | 838.75 | 462.3 | 0.00 |
| 2026-05-03 13:20 | 22.4 | 11.7 | -8.8 | 5.6 | 235 | 8.0 | 249 | 838.77 | 449.2 | 0.00 |
| 2026-05-03 13:15 | 22.2 | 11.6 | -9.0 | 4.4 | 229 | 6.8 | 277 | 838.86 | 418.5 | 0.00 |
| 2026-05-03 13:10 | 22.4 | 11.2 | -9.3 | 4.2 | 257 | 5.7 | 276 | 838.96 | 395.9 | 0.00 |
| 2026-05-03 13:05 | 22.3 | 11.8 | -8.7 | 4.3 | 266 | 6.9 | 234 | 839.00 | 426.2 | 0.00 |
| 2026-05-03 13:00 | 22.1 | 11.2 | -9.5 | 3.9 | 226 | 6.0 | 240 | 839.05 | 408.7 | 0.00 |
| 2026-05-03 12:55 | 22.1 | 11.4 | -9.3 | 6.1 | 272 | 9.6 | 260 | 839.05 | 440.2 | 0.00 |
| 2026-05-03 12:50 | 22.3 | 11.2 | -9.3 | 6.3 | 246 | 10.9 | 263 | 839.10 | 458.9 | 0.00 |